| Date | Time | Temp. (oF) | Dew Point (oF) | Rel. Hum. (%) | Press. (in.) | Wind Dir. | Wind Speed (mph) | Hourly Rainfall (in.) |
|
|---|---|---|---|---|---|---|---|---|---|
| 1 | 01/29 | 00:00 | 30 | 21 | 71 | 29.71 | NW | 0 | 0.00 |
| 2 | 01/28 | 23:00 | 32 | 21 | 66 | 29.71 | NW | 0 | 0.00 |
| 3 | 01/28 | 22:00 | 34 | 20 | 58 | 29.73 | NW | 1 | 0.00 |
| 4 | 01/28 | 21:00 | 35 | 22 | 60 | 29.74 | NW | 5 | 0.00 |
| 5 | 01/28 | 20:00 | 34 | 22 | 63 | 29.72 | NW | 1 | 0.00 |
| 6 | 01/28 | 19:00 | 35 | 24 | 65 | 29.71 | NW | 0 | 0.00 |
| 7 | 01/28 | 18:00 | 36 | 23 | 59 | 29.70 | NW | 0 | 0.00 |
| 8 | 01/28 | 17:00 | 39 | 22 | 51 | 29.67 | NW | 1 | 0.00 |
| 9 | 01/28 | 16:00 | 39 | 22 | 52 | 29.66 | NW | 4 | 0.00 |
| 10 | 01/28 | 15:00 | 38 | 23 | 56 | 29.68 | WSW | 6 | 0.00 |
| 11 | 01/28 | 14:00 | 37 | 23 | 57 | 29.69 | SSE | 4 | 0.00 |
| 12 | 01/28 | 13:00 | 36 | 24 | 63 | 29.70 | NW | 6 | 0.00 |
| 13 | 01/28 | 12:00 | 35 | 25 | 68 | 29.72 | NW | 13 | 0.00 |
| 14 | 01/28 | 11:00 | 35 | 25 | 67 | 29.74 | NW | 9 | 0.00 |
| 15 | 01/28 | 10:00 | 36 | 25 | 66 | 29.74 | NW | 4 | 0.00 |
| 16 | 01/28 | 09:00 | 34 | 22 | 63 | 29.73 | NW | 4 | 0.00 |
| 17 | 01/28 | 08:00 | 33 | 22 | 65 | 29.72 | NW | 6 | 0.00 |
| 18 | 01/28 | 07:00 | 33 | 22 | 66 | 29.72 | NW | 2 | 0.00 |
| 19 | 01/28 | 06:00 | 33 | 22 | 64 | 29.71 | NW | 3 | 0.00 |
| 20 | 01/28 | 05:00 | 33 | 22 | 64 | 29.71 | NW | 5 | 0.00 |
| 21 | 01/28 | 04:00 | 33 | 22 | 64 | 29.70 | WNW | 7 | 0.00 |
| 22 | 01/28 | 03:00 | 33 | 22 | 65 | 29.72 | NW | 4 | 0.00 |
| 23 | 01/28 | 02:00 | 33 | 21 | 63 | 29.72 | NW | 11 | 0.00 |
| 24 | 01/28 | 01:00 | 33 | 20 | 60 | 29.72 | SSW | 8 | 0.00 |